Jewett, Illinois
Current Conditions -  °F | °C
As of 8:14 AM on Monday 22 Dec 2014 (Local Time) from KMTO Reporting Station
Light Rain Light Rain  
Wind Chill: 26°   Ceiling: 4700
Heat Index: 35°   Visibility: 4mi
Dew Point: 31°   Wind: 13mph
Humidity: 85%   Direction: 130°SE
Pressure: 29.86"   Gusts: NA
Location:  39.21°N, 88.25°W
Report Text: KMTO 221414Z AUTO 13011KT 4SM -RA BR SCT023 BKN047 OVC055 02/M01 A2986 RMK AO2 P0000 T00171006
Loading
Personal Weather Stations






























Interactive Weather Map New forecast layout! Learn more

10-Day Weather Forecast

Advertisements
Track Severe Weather on mobile